sensor_id;sensor_type;location;lat;lon;timestamp;temperature;humidity
25951;DHT22;13748;52.240;6.002;2023-08-12T00:00:26;21.70;99.90
25951;DHT22;13748;52.240;6.002;2023-08-12T00:02:55;21.70;99.90
25951;DHT22;13748;52.240;6.002;2023-08-12T00:05:22;21.70;99.90
25951;DHT22;13748;52.240;6.002;2023-08-12T00:07:49;21.60;99.90
25951;DHT22;13748;52.240;6.002;2023-08-12T00:10:16;21.60;99.90
25951;DHT22;13748;52.240;6.002;2023-08-12T00:12:43;21.60;99.90
25951;DHT22;13748;52.240;6.002;2023-08-12T00:15:10;21.60;99.90
25951;DHT22;13748;52.240;6.002;2023-08-12T00:17:37;21.60;99.90
25951;DHT22;13748;52.240;6.002;2023-08-12T00:20:05;21.60;99.90
25951;DHT22;13748;52.240;6.002;2023-08-12T00:22:32;21.60;99.90
25951;DHT22;13748;52.240;6.002;2023-08-12T00:25:00;21.60;99.90
25951;DHT22;13748;52.240;6.002;2023-08-12T00:27:26;21.60;99.90
25951;DHT22;13748;52.240;6.002;2023-08-12T00:29:54;21.50;99.90
25951;DHT22;13748;52.240;6.002;2023-08-12T00:32:20;21.60;99.90
25951;DHT22;13748;52.240;6.002;2023-08-12T00:34:48;21.50;99.90
25951;DHT22;13748;52.240;6.002;2023-08-12T00:37:16;21.60;99.90
25951;DHT22;13748;52.240;6.002;2023-08-12T00:39:43;21.50;99.90
25951;DHT22;13748;52.240;6.002;2023-08-12T00:42:10;21.50;99.90
25951;DHT22;13748;52.240;6.002;2023-08-12T00:44:37;21.50;99.90
25951;DHT22;13748;52.240;6.002;2023-08-12T00:47:04;21.50;99.90
25951;DHT22;13748;52.240;6.002;2023-08-12T00:49:32;21.60;99.90
25951;DHT22;13748;52.240;6.002;2023-08-12T00:52:00;21.60;99.90
25951;DHT22;13748;52.240;6.002;2023-08-12T00:54:28;21.50;99.90
25951;DHT22;13748;52.240;6.002;2023-08-12T00:56:55;21.60;99.90
25951;DHT22;13748;52.240;6.002;2023-08-12T00:59:22;21.60;99.90
25951;DHT22;13748;52.240;6.002;2023-08-12T01:01:50;21.60;99.90
25951;DHT22;13748;52.240;6.002;2023-08-12T01:04:17;21.60;99.90
25951;DHT22;13748;52.240;6.002;2023-08-12T01:06:44;21.60;99.90
25951;DHT22;13748;52.240;6.002;2023-08-12T01:09:12;21.60;99.90
25951;DHT22;13748;52.240;6.002;2023-08-12T01:11:49;21.50;99.90
25951;DHT22;13748;52.240;6.002;2023-08-12T01:14:38;21.60;99.90
25951;DHT22;13748;52.240;6.002;2023-08-12T01:17:09;21.50;99.90
25951;DHT22;13748;52.240;6.002;2023-08-12T01:19:40;21.40;99.90
25951;DHT22;13748;52.240;6.002;2023-08-12T01:22:12;21.60;99.90
25951;DHT22;13748;52.240;6.002;2023-08-12T01:24:41;21.60;99.90
25951;DHT22;13748;52.240;6.002;2023-08-12T01:27:10;21.60;99.90
25951;DHT22;13748;52.240;6.002;2023-08-12T01:29:44;21.60;99.90
25951;DHT22;13748;52.240;6.002;2023-08-12T01:35:36;21.50;99.90
25951;DHT22;13748;52.240;6.002;2023-08-12T01:37:45;21.50;99.90
25951;DHT22;13748;52.240;6.002;2023-08-12T01:40:14;21.50;99.90
25951;DHT22;13748;52.240;6.002;2023-08-12T01:42:42;21.50;99.90
25951;DHT22;13748;52.240;6.002;2023-08-12T01:45:09;21.50;99.90
25951;DHT22;13748;52.240;6.002;2023-08-12T01:47:37;21.50;99.90
25951;DHT22;13748;52.240;6.002;2023-08-12T01:50:05;21.50;99.90
25951;DHT22;13748;52.240;6.002;2023-08-12T01:52:33;21.50;99.90
25951;DHT22;13748;52.240;6.002;2023-08-12T01:55:00;21.50;99.90
25951;DHT22;13748;52.240;6.002;2023-08-12T01:57:26;21.50;99.90
25951;DHT22;13748;52.240;6.002;2023-08-12T01:59:53;21.50;99.90
25951;DHT22;13748;52.240;6.002;2023-08-12T02:02:21;21.40;99.90
25951;DHT22;13748;52.240;6.002;2023-08-12T02:04:49;21.40;99.90
25951;DHT22;13748;52.240;6.002;2023-08-12T02:07:16;21.30;99.90
25951;DHT22;13748;52.240;6.002;2023-08-12T02:09:43;21.30;99.90
25951;DHT22;13748;52.240;6.002;2023-08-12T02:12:12;21.30;99.90
25951;DHT22;13748;52.240;6.002;2023-08-12T02:14:39;21.30;99.90
25951;DHT22;13748;52.240;6.002;2023-08-12T02:17:06;21.20;99.90
25951;DHT22;13748;52.240;6.002;2023-08-12T02:19:33;21.30;99.90
25951;DHT22;13748;52.240;6.002;2023-08-12T02:22:04;21.20;99.90
25951;DHT22;13748;52.240;6.002;2023-08-12T02:24:31;21.20;99.90
25951;DHT22;13748;52.240;6.002;2023-08-12T02:26:58;21.20;99.90
25951;DHT22;13748;52.240;6.002;2023-08-12T02:29:24;21.10;99.90
25951;DHT22;13748;52.240;6.002;2023-08-12T02:31:51;21.10;99.90
25951;DHT22;13748;52.240;6.002;2023-08-12T02:34:18;21.20;99.90
25951;DHT22;13748;52.240;6.002;2023-08-12T02:36:45;21.10;99.90
25951;DHT22;13748;52.240;6.002;2023-08-12T02:39:12;21.20;99.90
25951;DHT22;13748;52.240;6.002;2023-08-12T02:41:39;21.20;99.90
25951;DHT22;13748;52.240;6.002;2023-08-12T02:44:05;21.20;99.90
25951;DHT22;13748;52.240;6.002;2023-08-12T02:46:33;21.10;99.90
25951;DHT22;13748;52.240;6.002;2023-08-12T02:49:00;21.10;99.90
25951;DHT22;13748;52.240;6.002;2023-08-12T02:51:27;21.20;99.90
25951;DHT22;13748;52.240;6.002;2023-08-12T02:53:54;21.10;99.90
25951;DHT22;13748;52.240;6.002;2023-08-12T02:56:20;21.10;99.90
25951;DHT22;13748;52.240;6.002;2023-08-12T02:58:47;21.10;99.90
25951;DHT22;13748;52.240;6.002;2023-08-12T03:01:14;21.10;99.90
25951;DHT22;13748;52.240;6.002;2023-08-12T03:03:42;21.10;99.90
25951;DHT22;13748;52.240;6.002;2023-08-12T03:06:09;21.10;99.90
25951;DHT22;13748;52.240;6.002;2023-08-12T03:08:36;21.10;99.90
25951;DHT22;13748;52.240;6.002;2023-08-12T03:11:03;21.10;99.90
25951;DHT22;13748;52.240;6.002;2023-08-12T03:13:31;21.10;99.90
25951;DHT22;13748;52.240;6.002;2023-08-12T03:15:58;21.10;99.90
25951;DHT22;13748;52.240;6.002;2023-08-12T03:18:25;21.10;99.90
25951;DHT22;13748;52.240;6.002;2023-08-12T03:20:54;21.10;99.90
25951;DHT22;13748;52.240;6.002;2023-08-12T03:23:21;21.10;99.90
25951;DHT22;13748;52.240;6.002;2023-08-12T03:25:48;21.10;99.90
25951;DHT22;13748;52.240;6.002;2023-08-12T03:28:16;21.10;99.90
25951;DHT22;13748;52.240;6.002;2023-08-12T03:30:50;21.10;99.90
25951;DHT22;13748;52.240;6.002;2023-08-12T03:33:17;21.00;99.90
25951;DHT22;13748;52.240;6.002;2023-08-12T03:35:47;21.00;99.90
25951;DHT22;13748;52.240;6.002;2023-08-12T03:38:15;21.10;99.90
25951;DHT22;13748;52.240;6.002;2023-08-12T03:40:42;21.10;99.90
25951;DHT22;13748;52.240;6.002;2023-08-12T03:43:09;21.10;99.90
25951;DHT22;13748;52.240;6.002;2023-08-12T03:45:43;21.10;99.90
25951;DHT22;13748;52.240;6.002;2023-08-12T03:48:11;21.10;99.90
25951;DHT22;13748;52.240;6.002;2023-08-12T03:50:39;21.10;99.90
25951;DHT22;13748;52.240;6.002;2023-08-12T03:53:06;21.00;99.90
25951;DHT22;13748;52.240;6.002;2023-08-12T03:55:33;21.10;99.90
25951;DHT22;13748;52.240;6.002;2023-08-12T03:58:00;21.10;99.90
25951;DHT22;13748;52.240;6.002;2023-08-12T04:00:28;21.10;99.90
25951;DHT22;13748;52.240;6.002;2023-08-12T04:02:54;21.10;99.90
25951;DHT22;13748;52.240;6.002;2023-08-12T04:05:23;21.10;99.90
25951;DHT22;13748;52.240;6.002;2023-08-12T04:07:50;21.00;99.90
25951;DHT22;13748;52.240;6.002;2023-08-12T04:10:17;21.00;99.90
25951;DHT22;13748;52.240;6.002;2023-08-12T04:12:45;21.00;99.90
25951;DHT22;13748;52.240;6.002;2023-08-12T04:15:12;21.00;99.90
25951;DHT22;13748;52.240;6.002;2023-08-12T04:17:38;21.10;99.90
25951;DHT22;13748;52.240;6.002;2023-08-12T04:20:08;21.00;99.90
25951;DHT22;13748;52.240;6.002;2023-08-12T04:22:35;21.00;99.90
25951;DHT22;13748;52.240;6.002;2023-08-12T04:25:03;21.00;99.90
25951;DHT22;13748;52.240;6.002;2023-08-12T04:27:30;21.00;99.90
25951;DHT22;13748;52.240;6.002;2023-08-12T04:29:57;21.00;99.90
25951;DHT22;13748;52.240;6.002;2023-08-12T04:32:24;21.10;99.90
25951;DHT22;13748;52.240;6.002;2023-08-12T04:34:51;21.00;99.90
25951;DHT22;13748;52.240;6.002;2023-08-12T04:37:17;21.00;99.90
25951;DHT22;13748;52.240;6.002;2023-08-12T04:39:44;21.00;99.90
25951;DHT22;13748;52.240;6.002;2023-08-12T04:42:12;21.00;99.90
25951;DHT22;13748;52.240;6.002;2023-08-12T04:44:40;21.10;99.90
25951;DHT22;13748;52.240;6.002;2023-08-12T04:47:06;21.00;99.90
25951;DHT22;13748;52.240;6.002;2023-08-12T04:49:33;21.10;99.90
25951;DHT22;13748;52.240;6.002;2023-08-12T04:52:00;21.10;99.90
25951;DHT22;13748;52.240;6.002;2023-08-12T04:54:27;21.00;99.90
25951;DHT22;13748;52.240;6.002;2023-08-12T04:56:54;21.10;99.90
25951;DHT22;13748;52.240;6.002;2023-08-12T04:59:22;21.10;99.90
25951;DHT22;13748;52.240;6.002;2023-08-12T05:01:49;21.10;99.90
25951;DHT22;13748;52.240;6.002;2023-08-12T05:04:30;21.20;99.90
25951;DHT22;13748;52.240;6.002;2023-08-12T05:06:57;21.30;99.90
25951;DHT22;13748;52.240;6.002;2023-08-12T05:09:24;21.30;99.90
25951;DHT22;13748;52.240;6.002;2023-08-12T05:11:51;21.40;99.90
25951;DHT22;13748;52.240;6.002;2023-08-12T05:14:18;21.50;99.90
25951;DHT22;13748;52.240;6.002;2023-08-12T05:16:44;21.60;99.90
25951;DHT22;13748;52.240;6.002;2023-08-12T05:19:11;21.70;99.90
25951;DHT22;13748;52.240;6.002;2023-08-12T05:21:38;21.80;99.90
25951;DHT22;13748;52.240;6.002;2023-08-12T05:24:05;21.80;99.90
25951;DHT22;13748;52.240;6.002;2023-08-12T05:26:33;22.00;99.90
25951;DHT22;13748;52.240;6.002;2023-08-12T05:29:09;22.00;99.90
25951;DHT22;13748;52.240;6.002;2023-08-12T05:31:37;22.10;99.90
25951;DHT22;13748;52.240;6.002;2023-08-12T05:34:04;22.10;99.90
25951;DHT22;13748;52.240;6.002;2023-08-12T05:36:31;22.10;99.90
25951;DHT22;13748;52.240;6.002;2023-08-12T05:38:58;22.10;99.90
25951;DHT22;13748;52.240;6.002;2023-08-12T05:41:25;22.00;99.90
25951;DHT22;13748;52.240;6.002;2023-08-12T05:43:52;22.00;99.90
25951;DHT22;13748;52.240;6.002;2023-08-12T05:46:19;21.90;99.90
25951;DHT22;13748;52.240;6.002;2023-08-12T05:48:46;22.00;99.90
25951;DHT22;13748;52.240;6.002;2023-08-12T05:51:13;21.90;99.90
25951;DHT22;13748;52.240;6.002;2023-08-12T05:53:39;21.90;99.90
25951;DHT22;13748;52.240;6.002;2023-08-12T05:56:06;21.90;99.90
25951;DHT22;13748;52.240;6.002;2023-08-12T05:58:33;21.80;99.90
25951;DHT22;13748;52.240;6.002;2023-08-12T06:01:00;21.80;99.90
25951;DHT22;13748;52.240;6.002;2023-08-12T06:03:27;21.80;99.90
25951;DHT22;13748;52.240;6.002;2023-08-12T06:05:54;21.80;99.90
25951;DHT22;13748;52.240;6.002;2023-08-12T06:08:21;21.80;99.90
25951;DHT22;13748;52.240;6.002;2023-08-12T06:10:48;21.70;99.90
25951;DHT22;13748;52.240;6.002;2023-08-12T06:13:15;21.70;99.90
25951;DHT22;13748;52.240;6.002;2023-08-12T06:15:42;21.70;99.90
25951;DHT22;13748;52.240;6.002;2023-08-12T06:18:10;21.70;99.90
25951;DHT22;13748;52.240;6.002;2023-08-12T06:20:38;21.60;99.90
25951;DHT22;13748;52.240;6.002;2023-08-12T06:23:04;21.60;99.90
25951;DHT22;13748;52.240;6.002;2023-08-12T06:25:31;21.50;99.90
25951;DHT22;13748;52.240;6.002;2023-08-12T06:27:58;21.50;99.90
25951;DHT22;13748;52.240;6.002;2023-08-12T06:30:25;21.50;99.90
25951;DHT22;13748;52.240;6.002;2023-08-12T06:32:52;21.40;99.90
25951;DHT22;13748;52.240;6.002;2023-08-12T06:35:19;21.50;99.90
25951;DHT22;13748;52.240;6.002;2023-08-12T06:37:46;21.40;99.90
25951;DHT22;13748;52.240;6.002;2023-08-12T06:40:12;21.40;99.90
25951;DHT22;13748;52.240;6.002;2023-08-12T06:42:39;21.50;99.90
25951;DHT22;13748;52.240;6.002;2023-08-12T06:45:06;21.50;99.90
25951;DHT22;13748;52.240;6.002;2023-08-12T06:47:34;21.40;99.90
25951;DHT22;13748;52.240;6.002;2023-08-12T06:50:01;21.40;99.90
25951;DHT22;13748;52.240;6.002;2023-08-12T06:52:28;21.40;99.90
25951;DHT22;13748;52.240;6.002;2023-08-12T06:54:55;21.40;99.90
25951;DHT22;13748;52.240;6.002;2023-08-12T06:57:22;21.40;99.90
25951;DHT22;13748;52.240;6.002;2023-08-12T06:59:49;21.30;99.90
25951;DHT22;13748;52.240;6.002;2023-08-12T07:02:16;21.40;99.90
25951;DHT22;13748;52.240;6.002;2023-08-12T07:04:43;21.30;99.90
25951;DHT22;13748;52.240;6.002;2023-08-12T07:07:10;21.30;99.90
25951;DHT22;13748;52.240;6.002;2023-08-12T07:09:40;21.30;99.90
25951;DHT22;13748;52.240;6.002;2023-08-12T07:12:07;21.30;99.90
25951;DHT22;13748;52.240;6.002;2023-08-12T07:14:34;21.30;99.90
25951;DHT22;13748;52.240;6.002;2023-08-12T07:17:00;21.30;99.90
25951;DHT22;13748;52.240;6.002;2023-08-12T07:19:27;21.40;99.90
25951;DHT22;13748;52.240;6.002;2023-08-12T07:21:56;21.40;99.90
25951;DHT22;13748;52.240;6.002;2023-08-12T07:24:23;21.30;99.90
25951;DHT22;13748;52.240;6.002;2023-08-12T07:26:51;21.40;99.90
25951;DHT22;13748;52.240;6.002;2023-08-12T07:29:18;21.30;99.90
25951;DHT22;13748;52.240;6.002;2023-08-12T07:31:45;21.30;99.90
25951;DHT22;13748;52.240;6.002;2023-08-12T07:34:15;21.20;99.90
25951;DHT22;13748;52.240;6.002;2023-08-12T07:36:42;21.30;99.90
25951;DHT22;13748;52.240;6.002;2023-08-12T07:39:09;21.30;99.90
25951;DHT22;13748;52.240;6.002;2023-08-12T07:41:36;21.20;99.90
25951;DHT22;13748;52.240;6.002;2023-08-12T07:44:04;21.20;99.90
25951;DHT22;13748;52.240;6.002;2023-08-12T07:46:31;21.20;99.90
25951;DHT22;13748;52.240;6.002;2023-08-12T07:48:58;21.10;99.90
25951;DHT22;13748;52.240;6.002;2023-08-12T07:51:25;21.20;99.90
25951;DHT22;13748;52.240;6.002;2023-08-12T07:53:52;21.10;99.90
25951;DHT22;13748;52.240;6.002;2023-08-12T07:56:21;21.00;99.90
25951;DHT22;13748;52.240;6.002;2023-08-12T07:58:51;21.00;99.90
25951;DHT22;13748;52.240;6.002;2023-08-12T08:01:18;21.10;99.90
25951;DHT22;13748;52.240;6.002;2023-08-12T08:03:45;21.00;99.90
25951;DHT22;13748;52.240;6.002;2023-08-12T08:06:11;21.00;99.90
25951;DHT22;13748;52.240;6.002;2023-08-12T08:08:38;21.00;99.90
25951;DHT22;13748;52.240;6.002;2023-08-12T08:11:06;21.00;99.90
25951;DHT22;13748;52.240;6.002;2023-08-12T08:13:33;20.90;99.90
25951;DHT22;13748;52.240;6.002;2023-08-12T08:15:59;20.90;99.90
25951;DHT22;13748;52.240;6.002;2023-08-12T08:18:26;20.80;99.90
25951;DHT22;13748;52.240;6.002;2023-08-12T08:20:53;20.80;99.90
25951;DHT22;13748;52.240;6.002;2023-08-12T08:23:20;20.60;99.90
25951;DHT22;13748;52.240;6.002;2023-08-12T08:25:48;20.50;99.90
25951;DHT22;13748;52.240;6.002;2023-08-12T08:28:14;20.50;99.90
25951;DHT22;13748;52.240;6.002;2023-08-12T08:30:41;20.50;99.90
25951;DHT22;13748;52.240;6.002;2023-08-12T08:33:08;20.50;99.90
25951;DHT22;13748;52.240;6.002;2023-08-12T08:35:35;20.40;99.90
25951;DHT22;13748;52.240;6.002;2023-08-12T08:38:02;20.40;99.90
25951;DHT22;13748;52.240;6.002;2023-08-12T08:40:29;20.40;99.90
25951;DHT22;13748;52.240;6.002;2023-08-12T08:43:01;20.40;99.90
25951;DHT22;13748;52.240;6.002;2023-08-12T08:45:32;20.50;99.90
25951;DHT22;13748;52.240;6.002;2023-08-12T08:48:01;20.60;99.90
25951;DHT22;13748;52.240;6.002;2023-08-12T08:50:31;20.60;99.90
25951;DHT22;13748;52.240;6.002;2023-08-12T08:53:00;20.60;99.90
25951;DHT22;13748;52.240;6.002;2023-08-12T08:55:27;20.60;99.90
25951;DHT22;13748;52.240;6.002;2023-08-12T08:57:55;20.70;99.90
25951;DHT22;13748;52.240;6.002;2023-08-12T09:00:28;20.70;99.90
25951;DHT22;13748;52.240;6.002;2023-08-12T09:02:56;20.70;99.90
25951;DHT22;13748;52.240;6.002;2023-08-12T09:05:24;20.80;99.90
25951;DHT22;13748;52.240;6.002;2023-08-12T09:07:54;20.90;99.90
25951;DHT22;13748;52.240;6.002;2023-08-12T09:10:21;20.90;99.90
25951;DHT22;13748;52.240;6.002;2023-08-12T09:12:49;21.00;99.90
25951;DHT22;13748;52.240;6.002;2023-08-12T09:15:16;21.10;99.90
25951;DHT22;13748;52.240;6.002;2023-08-12T09:17:44;21.10;99.90
25951;DHT22;13748;52.240;6.002;2023-08-12T09:20:11;21.10;99.90
25951;DHT22;13748;52.240;6.002;2023-08-12T09:22:42;21.10;99.90
25951;DHT22;13748;52.240;6.002;2023-08-12T09:25:10;21.00;99.90
25951;DHT22;13748;52.240;6.002;2023-08-12T09:27:40;21.00;99.90
25951;DHT22;13748;52.240;6.002;2023-08-12T09:30:10;21.00;99.90
25951;DHT22;13748;52.240;6.002;2023-08-12T09:33:09;21.00;99.90
25951;DHT22;13748;52.240;6.002;2023-08-12T09:35:41;21.00;99.90
25951;DHT22;13748;52.240;6.002;2023-08-12T09:38:15;21.10;99.90
25951;DHT22;13748;52.240;6.002;2023-08-12T09:40:42;21.20;99.90
25951;DHT22;13748;52.240;6.002;2023-08-12T09:43:10;21.60;99.90
25951;DHT22;13748;52.240;6.002;2023-08-12T09:45:41;21.70;99.90
25951;DHT22;13748;52.240;6.002;2023-08-12T09:48:09;21.80;99.90
25951;DHT22;13748;52.240;6.002;2023-08-12T09:50:37;22.00;99.90
25951;DHT22;13748;52.240;6.002;2023-08-12T09:53:04;21.80;99.90
25951;DHT22;13748;52.240;6.002;2023-08-12T09:55:31;21.90;99.90
25951;DHT22;13748;52.240;6.002;2023-08-12T09:58:01;22.00;99.90
25951;DHT22;13748;52.240;6.002;2023-08-12T10:00:31;22.00;99.90
25951;DHT22;13748;52.240;6.002;2023-08-12T10:02:59;22.00;99.90
25951;DHT22;13748;52.240;6.002;2023-08-12T10:05:28;22.00;99.90
25951;DHT22;13748;52.240;6.002;2023-08-12T10:07:57;22.00;99.90
25951;DHT22;13748;52.240;6.002;2023-08-12T10:10:25;22.00;99.90
25951;DHT22;13748;52.240;6.002;2023-08-12T10:12:52;22.00;99.90
25951;DHT22;13748;52.240;6.002;2023-08-12T10:15:20;21.90;99.90
25951;DHT22;13748;52.240;6.002;2023-08-12T10:17:48;21.90;99.90
25951;DHT22;13748;52.240;6.002;2023-08-12T10:20:21;22.10;99.90
25951;DHT22;13748;52.240;6.002;2023-08-12T10:22:52;22.10;99.90
25951;DHT22;13748;52.240;6.002;2023-08-12T10:25:21;22.30;99.90
25951;DHT22;13748;52.240;6.002;2023-08-12T10:27:48;22.40;99.90
25951;DHT22;13748;52.240;6.002;2023-08-12T10:30:16;22.40;99.90
25951;DHT22;13748;52.240;6.002;2023-08-12T10:32:45;22.40;99.90
25951;DHT22;13748;52.240;6.002;2023-08-12T10:35:12;22.50;99.90
25951;DHT22;13748;52.240;6.002;2023-08-12T10:37:39;22.60;99.90
25951;DHT22;13748;52.240;6.002;2023-08-12T10:40:19;22.40;99.90
25951;DHT22;13748;52.240;6.002;2023-08-12T10:42:48;22.30;99.90
25951;DHT22;13748;52.240;6.002;2023-08-12T10:45:17;22.30;99.90
25951;DHT22;13748;52.240;6.002;2023-08-12T10:47:51;22.00;99.90
25951;DHT22;13748;52.240;6.002;2023-08-12T10:50:20;21.70;99.90
25951;DHT22;13748;52.240;6.002;2023-08-12T10:52:52;21.50;99.90
25951;DHT22;13748;52.240;6.002;2023-08-12T10:55:24;21.40;99.90
25951;DHT22;13748;52.240;6.002;2023-08-12T10:57:54;21.30;99.90
25951;DHT22;13748;52.240;6.002;2023-08-12T11:00:23;21.40;99.90
25951;DHT22;13748;52.240;6.002;2023-08-12T11:02:52;21.60;99.90
25951;DHT22;13748;52.240;6.002;2023-08-12T11:05:20;21.80;99.90
25951;DHT22;13748;52.240;6.002;2023-08-12T11:07:59;21.90;99.90
25951;DHT22;13748;52.240;6.002;2023-08-12T11:10:33;22.00;99.90
25951;DHT22;13748;52.240;6.002;2023-08-12T11:13:01;22.10;99.90
25951;DHT22;13748;52.240;6.002;2023-08-12T11:15:43;22.20;99.90
25951;DHT22;13748;52.240;6.002;2023-08-12T11:18:17;22.40;99.90
25951;DHT22;13748;52.240;6.002;2023-08-12T11:20:47;22.70;99.90
25951;DHT22;13748;52.240;6.002;2023-08-12T11:23:15;22.80;99.90
25951;DHT22;13748;52.240;6.002;2023-08-12T11:25:44;23.00;99.90
25951;DHT22;13748;52.240;6.002;2023-08-12T11:28:18;23.00;99.90
25951;DHT22;13748;52.240;6.002;2023-08-12T11:30:50;22.90;99.90
25951;DHT22;13748;52.240;6.002;2023-08-12T11:33:17;23.00;99.90
25951;DHT22;13748;52.240;6.002;2023-08-12T11:35:45;23.10;99.90
25951;DHT22;13748;52.240;6.002;2023-08-12T11:38:14;23.20;99.90
25951;DHT22;13748;52.240;6.002;2023-08-12T11:40:42;23.00;99.90
25951;DHT22;13748;52.240;6.002;2023-08-12T11:43:10;23.00;99.90
25951;DHT22;13748;52.240;6.002;2023-08-12T11:45:41;22.90;99.90
25951;DHT22;13748;52.240;6.002;2023-08-12T11:48:09;23.00;99.90
25951;DHT22;13748;52.240;6.002;2023-08-12T11:50:37;23.00;99.90
25951;DHT22;13748;52.240;6.002;2023-08-12T11:53:04;23.00;99.90
25951;DHT22;13748;52.240;6.002;2023-08-12T11:55:31;23.30;99.90
25951;DHT22;13748;52.240;6.002;2023-08-12T11:57:58;23.20;99.90
25951;DHT22;13748;52.240;6.002;2023-08-12T12:00:25;23.20;99.90
25951;DHT22;13748;52.240;6.002;2023-08-12T12:02:56;23.30;99.90
25951;DHT22;13748;52.240;6.002;2023-08-12T12:05:28;23.50;99.90
25951;DHT22;13748;52.240;6.002;2023-08-12T12:07:56;23.50;99.90
25951;DHT22;13748;52.240;6.002;2023-08-12T12:10:29;23.50;99.90
25951;DHT22;13748;52.240;6.002;2023-08-12T12:13:01;23.30;99.90
25951;DHT22;13748;52.240;6.002;2023-08-12T12:15:28;23.30;99.90
25951;DHT22;13748;52.240;6.002;2023-08-12T12:17:55;23.30;99.90
25951;DHT22;13748;52.240;6.002;2023-08-12T12:20:22;23.40;99.90
25951;DHT22;13748;52.240;6.002;2023-08-12T12:22:49;23.60;99.90
25951;DHT22;13748;52.240;6.002;2023-08-12T12:25:17;23.80;99.90
25951;DHT22;13748;52.240;6.002;2023-08-12T12:27:47;23.90;99.90
25951;DHT22;13748;52.240;6.002;2023-08-12T12:30:16;24.00;99.90
25951;DHT22;13748;52.240;6.002;2023-08-12T12:32:43;24.10;99.90
25951;DHT22;13748;52.240;6.002;2023-08-12T12:35:10;24.30;99.90
25951;DHT22;13748;52.240;6.002;2023-08-12T12:37:38;24.40;99.90
25951;DHT22;13748;52.240;6.002;2023-08-12T12:40:05;24.50;99.90
25951;DHT22;13748;52.240;6.002;2023-08-12T12:42:32;24.50;99.90
25951;DHT22;13748;52.240;6.002;2023-08-12T12:44:59;24.50;99.90
25951;DHT22;13748;52.240;6.002;2023-08-12T12:47:26;24.50;99.90
25951;DHT22;13748;52.240;6.002;2023-08-12T12:49:53;24.70;99.90
25951;DHT22;13748;52.240;6.002;2023-08-12T12:52:20;24.80;99.90
25951;DHT22;13748;52.240;6.002;2023-08-12T12:54:47;24.90;99.90
25951;DHT22;13748;52.240;6.002;2023-08-12T12:57:14;25.00;99.90
25951;DHT22;13748;52.240;6.002;2023-08-12T12:59:41;25.00;99.90
25951;DHT22;13748;52.240;6.002;2023-08-12T13:02:08;24.90;99.90
25951;DHT22;13748;52.240;6.002;2023-08-12T13:04:35;25.00;99.90
25951;DHT22;13748;52.240;6.002;2023-08-12T13:07:02;25.10;99.90
25951;DHT22;13748;52.240;6.002;2023-08-12T13:09:29;25.30;99.90
25951;DHT22;13748;52.240;6.002;2023-08-12T13:11:56;25.50;99.90
25951;DHT22;13748;52.240;6.002;2023-08-12T13:14:24;25.60;99.90
25951;DHT22;13748;52.240;6.002;2023-08-12T13:16:51;25.60;99.90
25951;DHT22;13748;52.240;6.002;2023-08-12T13:19:18;25.70;99.90
25951;DHT22;13748;52.240;6.002;2023-08-12T13:21:44;25.80;99.90
25951;DHT22;13748;52.240;6.002;2023-08-12T13:24:11;25.70;99.90
25951;DHT22;13748;52.240;6.002;2023-08-12T13:26:39;25.60;99.90
25951;DHT22;13748;52.240;6.002;2023-08-12T13:29:06;25.60;99.90
25951;DHT22;13748;52.240;6.002;2023-08-12T13:31:33;25.60;99.90
25951;DHT22;13748;52.240;6.002;2023-08-12T13:34:00;25.70;99.90
25951;DHT22;13748;52.240;6.002;2023-08-12T13:36:27;25.80;99.90
25951;DHT22;13748;52.240;6.002;2023-08-12T13:38:54;25.80;99.90
25951;DHT22;13748;52.240;6.002;2023-08-12T13:41:21;25.90;99.90
25951;DHT22;13748;52.240;6.002;2023-08-12T13:43:48;26.10;99.90
25951;DHT22;13748;52.240;6.002;2023-08-12T13:46:15;26.30;99.90
25951;DHT22;13748;52.240;6.002;2023-08-12T13:48:42;26.30;99.90
25951;DHT22;13748;52.240;6.002;2023-08-12T13:51:09;26.30;99.90
25951;DHT22;13748;52.240;6.002;2023-08-12T13:53:36;26.30;99.90
25951;DHT22;13748;52.240;6.002;2023-08-12T13:56:03;26.40;99.90
25951;DHT22;13748;52.240;6.002;2023-08-12T13:58:30;26.40;99.90
25951;DHT22;13748;52.240;6.002;2023-08-12T14:00:57;26.40;99.90
25951;DHT22;13748;52.240;6.002;2023-08-12T14:03:24;26.40;99.90
25951;DHT22;13748;52.240;6.002;2023-08-12T14:05:51;26.30;99.90
25951;DHT22;13748;52.240;6.002;2023-08-12T14:08:18;26.40;99.90
25951;DHT22;13748;52.240;6.002;2023-08-12T14:10:46;26.50;99.90
25951;DHT22;13748;52.240;6.002;2023-08-12T14:13:14;26.40;99.90
25951;DHT22;13748;52.240;6.002;2023-08-12T14:15:41;26.30;99.90
25951;DHT22;13748;52.240;6.002;2023-08-12T14:18:08;26.30;99.90
25951;DHT22;13748;52.240;6.002;2023-08-12T14:20:35;26.40;99.90
25951;DHT22;13748;52.240;6.002;2023-08-12T14:23:02;26.40;99.90
25951;DHT22;13748;52.240;6.002;2023-08-12T14:25:29;26.50;99.90
25951;DHT22;13748;52.240;6.002;2023-08-12T14:27:56;26.60;99.90
25951;DHT22;13748;52.240;6.002;2023-08-12T14:30:24;26.70;99.90
25951;DHT22;13748;52.240;6.002;2023-08-12T14:32:57;26.80;99.90
25951;DHT22;13748;52.240;6.002;2023-08-12T14:35:24;27.00;99.90
25951;DHT22;13748;52.240;6.002;2023-08-12T14:37:51;27.00;99.90
25951;DHT22;13748;52.240;6.002;2023-08-12T14:40:18;27.10;99.90
25951;DHT22;13748;52.240;6.002;2023-08-12T14:42:46;27.20;99.90
25951;DHT22;13748;52.240;6.002;2023-08-12T14:45:13;27.00;99.90
25951;DHT22;13748;52.240;6.002;2023-08-12T14:47:40;26.90;99.90
25951;DHT22;13748;52.240;6.002;2023-08-12T14:50:07;26.70;99.90
25951;DHT22;13748;52.240;6.002;2023-08-12T14:52:35;26.50;99.90
25951;DHT22;13748;52.240;6.002;2023-08-12T14:55:02;26.50;99.90
25951;DHT22;13748;52.240;6.002;2023-08-12T14:57:29;26.60;99.90
25951;DHT22;13748;52.240;6.002;2023-08-12T14:59:56;26.80;99.90
25951;DHT22;13748;52.240;6.002;2023-08-12T15:02:24;26.60;99.90
25951;DHT22;13748;52.240;6.002;2023-08-12T15:04:51;26.20;99.90
25951;DHT22;13748;52.240;6.002;2023-08-12T15:07:18;26.20;99.90
25951;DHT22;13748;52.240;6.002;2023-08-12T15:09:45;26.20;99.90
25951;DHT22;13748;52.240;6.002;2023-08-12T15:12:12;26.30;99.90
25951;DHT22;13748;52.240;6.002;2023-08-12T15:14:39;26.00;99.90
25951;DHT22;13748;52.240;6.002;2023-08-12T15:17:06;25.90;99.90
25951;DHT22;13748;52.240;6.002;2023-08-12T15:19:33;25.60;99.90
25951;DHT22;13748;52.240;6.002;2023-08-12T15:22:00;25.60;99.90
25951;DHT22;13748;52.240;6.002;2023-08-12T15:24:27;25.50;99.90
25951;DHT22;13748;52.240;6.002;2023-08-12T15:26:54;25.40;99.90
25951;DHT22;13748;52.240;6.002;2023-08-12T15:29:20;25.30;99.90
25951;DHT22;13748;52.240;6.002;2023-08-12T15:31:47;25.20;99.90
25951;DHT22;13748;52.240;6.002;2023-08-12T15:34:14;25.40;99.90
25951;DHT22;13748;52.240;6.002;2023-08-12T15:36:42;25.40;99.90